Time,TemperatureF,DewpointF,PressureIn,WindDirection,WindDirectionDegrees,WindSpeedMPH,WindSpeedGustMPH,Humidity,HourlyPrecipIn,Conditions,Clouds,dailyrainin,SoftwareType,DateUTC
2013-01-01 00:04:00,9.3,4.4,30.25,NNW,342,0.0,0.0,80,0.00,,,0.00,Wunderground v.1.15,2013-01-01 06:04:00,
2013-01-01 00:09:00,9.1,4.2,30.25,NNW,343,0.0,0.0,80,0.00,,,0.00,Wunderground v.1.15,2013-01-01 06:09:00,
2013-01-01 00:15:00,8.7,3.8,30.25,NNW,343,0.0,0.0,80,0.00,,,0.00,Wunderground v.1.15,2013-01-01 06:15:00,
2013-01-01 00:20:00,8.5,3.6,30.25,NNW,344,0.0,0.0,80,0.00,,,0.00,Wunderground v.1.15,2013-01-01 06:20:00,
2013-01-01 00:26:00,8.2,3.3,30.25,NNW,344,0.0,0.0,80,0.00,,,0.00,Wunderground v.1.15,2013-01-01 06:26:00,
2013-01-01 00:32:00,7.8,2.9,30.25,NNW,344,0.0,0.0,80,0.00,,,0.00,Wunderground v.1.15,2013-01-01 06:32:00,
2013-01-01 00:38:00,7.6,2.7,30.26,NNW,344,0.0,0.0,80,0.00,,,0.00,Wunderground v.1.15,2013-01-01 06:38:00,
2013-01-01 00:43:00,7.3,2.4,30.26,NNW,344,0.0,0.0,80,0.00,,,0.00,Wunderground v.1.15,2013-01-01 06:43:00,
2013-01-01 00:48:00,7.1,2.2,30.25,NNW,344,0.0,0.0,80,0.00,,,0.00,Wunderground v.1.15,2013-01-01 06:48:00,
2013-01-01 00:54:00,6.8,1.9,30.26,NNW,344,0.0,0.0,80,0.00,,,0.00,Wunderground v.1.15,2013-01-01 06:54:00,
2013-01-01 01:00:00,6.4,1.5,30.26,NNW,344,0.0,0.0,80,0.00,,,0.00,Wunderground v.1.15,2013-01-01 07:00:00,
2013-01-01 01:06:00,6.3,1.7,30.26,NNW,344,0.0,0.0,81,0.00,,,0.00,Wunderground v.1.15,2013-01-01 07:06:00,
2013-01-01 01:24:00,5.5,0.9,30.25,NNW,344,0.0,0.0,81,0.00,,,0.00,Wunderground v.1.15,2013-01-01 07:24:00,
2013-01-01 01:30:00,5.2,0.6,30.25,NNW,344,0.0,0.0,81,0.00,,,0.00,Wunderground v.1.15,2013-01-01 07:30:00,
2013-01-01 01:35:00,4.9,0.3,30.25,NNW,344,0.0,0.0,81,0.00,,,0.00,Wunderground v.1.15,2013-01-01 07:35:00,
2013-01-01 01:40:00,4.8,0.5,30.26,NNW,344,0.0,0.0,82,0.00,,,0.00,Wunderground v.1.15,2013-01-01 07:40:00,
2013-01-01 01:46:00,4.9,0.6,30.25,NNW,344,0.0,0.0,82,0.00,,,0.00,Wunderground v.1.15,2013-01-01 07:46:00,
2013-01-01 01:52:00,4.8,0.5,30.25,NNW,344,0.0,0.0,82,0.00,,,0.00,Wunderground v.1.15,2013-01-01 07:52:00,
2013-01-01 01:58:00,4.6,0.1,30.25,NNW,344,0.0,0.0,81,0.00,,,0.00,Wunderground v.1.15,2013-01-01 07:58:00,
2013-01-01 02:03:00,4.4,0.1,30.26,NNW,344,0.0,0.0,82,0.00,,,0.00,Wunderground v.1.15,2013-01-01 08:03:00,
2013-01-01 02:08:00,4.3,0.0,30.26,NNW,344,0.0,0.0,82,0.00,,,0.00,Wunderground v.1.15,2013-01-01 08:08:00,
2013-01-01 02:13:00,4.1,-0.2,30.27,NNW,344,0.0,0.0,82,0.00,,,0.00,Wunderground v.1.15,2013-01-01 08:13:00,
2013-01-01 02:18:00,4.0,-0.3,30.27,NNW,344,0.0,0.0,82,0.00,,,0.00,Wunderground v.1.15,2013-01-01 08:18:00,
2013-01-01 02:23:00,3.7,-0.6,30.27,NNW,344,0.0,0.0,82,0.00,,,0.00,Wunderground v.1.15,2013-01-01 08:23:00,
2013-01-01 02:28:00,3.6,-0.7,30.27,NNW,344,0.0,0.0,82,0.00,,,0.00,Wunderground v.1.15,2013-01-01 08:28:00,
2013-01-01 02:33:00,3.4,-0.9,30.28,NNW,344,0.0,0.0,82,0.00,,,0.00,Wunderground v.1.15,2013-01-01 08:33:00,
2013-01-01 02:38:00,3.3,-1.0,30.28,NNW,344,0.0,0.0,82,0.00,,,0.00,Wunderground v.1.15,2013-01-01 08:38:00,
2013-01-01 02:43:00,3.2,-1.1,30.28,NNW,344,0.0,0.0,82,0.00,,,0.00,Wunderground v.1.15,2013-01-01 08:43:00,
2013-01-01 02:48:00,3.1,-1.2,30.28,NNW,344,0.0,0.0,82,0.00,,,0.00,Wunderground v.1.15,2013-01-01 08:48:00,
2013-01-01 02:53:00,2.9,-1.3,30.29,NNW,344,0.0,0.0,82,0.00,,,0.00,Wunderground v.1.15,2013-01-01 08:53:00,
2013-01-01 02:58:00,2.8,-1.4,30.29,NNW,344,0.0,0.0,82,0.00,,,0.00,Wunderground v.1.15,2013-01-01 08:58:00,
2013-01-01 03:03:00,2.9,-1.3,30.29,NNW,344,0.0,0.0,82,0.00,,,0.00,Wunderground v.1.15,2013-01-01 09:03:00,
2013-01-01 03:08:00,2.6,-1.6,30.30,NNW,344,0.0,0.0,82,0.00,,,0.00,Wunderground v.1.15,2013-01-01 09:08:00,
2013-01-01 03:13:00,2.3,-1.9,30.30,NNW,344,0.0,0.0,82,0.00,,,0.00,Wunderground v.1.15,2013-01-01 09:13:00,
2013-01-01 03:18:00,2.0,-2.2,30.30,NNW,344,0.0,0.0,82,0.00,,,0.00,Wunderground v.1.15,2013-01-01 09:18:00,
2013-01-01 03:23:00,1.8,-2.4,30.29,NNW,344,0.0,0.0,82,0.00,,,0.00,Wunderground v.1.15,2013-01-01 09:23:00,
2013-01-01 03:28:00,1.5,-2.7,30.29,NNW,344,0.0,0.0,82,0.00,,,0.00,Wunderground v.1.15,2013-01-01 09:28:00,
2013-01-01 03:33:00,1.3,-2.7,30.30,NNW,344,0.0,0.0,83,0.00,,,0.00,Wunderground v.1.15,2013-01-01 09:33:00,
2013-01-01 03:38:00,1.4,-2.6,30.30,NNW,344,0.0,0.0,83,0.00,,,0.00,Wunderground v.1.15,2013-01-01 09:38:00,
2013-01-01 03:43:00,1.7,-2.3,30.29,NNW,344,0.0,0.0,83,0.00,,,0.00,Wunderground v.1.15,2013-01-01 09:43:00,
2013-01-01 03:48:00,1.7,-2.3,30.29,NNW,344,0.0,0.0,83,0.00,,,0.00,Wunderground v.1.15,2013-01-01 09:48:00,
2013-01-01 03:53:00,1.8,-2.2,30.29,NNW,344,0.0,0.0,83,0.00,,,0.00,Wunderground v.1.15,2013-01-01 09:53:00,
2013-01-01 03:58:00,1.7,-2.3,30.29,NNW,344,0.0,0.0,83,0.00,,,0.00,Wunderground v.1.15,2013-01-01 09:58:00,
2013-01-01 04:03:00,1.3,-2.9,30.30,NNW,344,0.0,0.0,82,0.00,,,0.00,Wunderground v.1.15,2013-01-01 10:03:00,
2013-01-01 04:08:00,1.3,-2.7,30.30,NNW,344,0.0,0.0,83,0.00,,,0.00,Wunderground v.1.15,2013-01-01 10:08:00,
2013-01-01 04:24:00,1.1,-2.9,30.30,NNW,344,0.0,0.0,83,0.00,,,0.00,Wunderground v.1.15,2013-01-01 10:24:00,
2013-01-01 04:29:00,1.1,-2.9,30.30,NNW,344,0.0,0.0,83,0.00,,,0.00,Wunderground v.1.15,2013-01-01 10:29:00,
2013-01-01 04:34:00,1.0,-3.0,30.30,NNW,344,0.0,0.0,83,0.00,,,0.00,Wunderground v.1.15,2013-01-01 10:34:00,
2013-01-01 04:39:00,0.9,-3.1,30.30,NNW,344,0.0,0.0,83,0.00,,,0.00,Wunderground v.1.15,2013-01-01 10:39:00,
2013-01-01 04:44:00,0.8,-3.2,30.30,NNW,344,0.0,0.0,83,0.00,,,0.00,Wunderground v.1.15,2013-01-01 10:44:00,
2013-01-01 04:49:00,0.7,-3.3,30.30,NNW,344,0.0,0.0,83,0.00,,,0.00,Wunderground v.1.15,2013-01-01 10:49:00,
2013-01-01 04:54:00,0.5,-3.4,30.30,NNW,344,0.0,0.0,83,0.00,,,0.00,Wunderground v.1.15,2013-01-01 10:54:00,
2013-01-01 04:59:00,0.3,-3.6,30.30,NNW,344,0.0,0.0,83,0.00,,,0.00,Wunderground v.1.15,2013-01-01 10:59:00,
2013-01-01 05:04:00,0.0,-3.9,30.30,NNW,344,0.0,0.0,83,0.00,,,0.00,Wunderground v.1.15,2013-01-01 11:04:00,
2013-01-01 05:10:00,-0.2,-4.1,30.31,NNW,344,0.0,0.0,83,0.00,,,0.00,Wunderground v.1.15,2013-01-01 11:10:00,
2013-01-01 05:15:00,-0.2,-4.1,30.31,NNW,344,0.0,0.0,83,0.00,,,0.00,Wunderground v.1.15,2013-01-01 11:15:00,
2013-01-01 05:20:00,-0.4,-4.3,30.31,NNW,344,0.0,0.0,83,0.00,,,0.00,Wunderground v.1.15,2013-01-01 11:20:00,
2013-01-01 05:25:00,-0.5,-4.4,30.31,NNW,344,0.0,0.0,83,0.00,,,0.00,Wunderground v.1.15,2013-01-01 11:25:00,
2013-01-01 05:30:00,-0.7,-4.6,30.31,NNW,344,0.0,0.0,83,0.00,,,0.00,Wunderground v.1.15,2013-01-01 11:30:00,
2013-01-01 05:35:00,-0.7,-4.6,30.30,NNW,344,0.0,0.0,83,0.00,,,0.00,Wunderground v.1.15,2013-01-01 11:35:00,
2013-01-01 05:40:00,-0.8,-4.7,30.31,NNW,344,0.0,0.0,83,0.00,,,0.00,Wunderground v.1.15,2013-01-01 11:40:00,
2013-01-01 05:45:00,-0.9,-4.8,30.31,NNW,344,0.0,0.0,83,0.00,,,0.00,Wunderground v.1.15,2013-01-01 11:45:00,
2013-01-01 05:50:00,-1.0,-4.9,30.31,NNW,344,0.0,0.0,83,0.00,,,0.00,Wunderground v.1.15,2013-01-01 11:50:00,
2013-01-01 05:55:00,-1.3,-5.2,30.31,NNW,344,0.0,0.0,83,0.00,,,0.00,Wunderground v.1.15,2013-01-01 11:55:00,
2013-01-01 06:00:00,-1.4,-5.3,30.31,NNW,344,0.0,0.0,83,0.00,,,0.00,Wunderground v.1.15,2013-01-01 12:00:00,
2013-01-01 06:05:00,-1.4,-5.3,30.31,NNW,344,0.0,0.0,83,0.00,,,0.00,Wunderground v.1.15,2013-01-01 12:05:00,
2013-01-01 06:10:00,-1.6,-5.5,30.31,NNW,344,0.0,0.0,83,0.00,,,0.00,Wunderground v.1.15,2013-01-01 12:10:00,
2013-01-01 06:15:00,-1.6,-5.5,30.31,NNW,344,0.0,0.0,83,0.00,,,0.00,Wunderground v.1.15,2013-01-01 12:15:00,
2013-01-01 06:20:00,-1.6,-5.5,30.31,NNW,344,0.0,0.0,83,0.00,,,0.00,Wunderground v.1.15,2013-01-01 12:20:00,
2013-01-01 06:25:00,-1.5,-5.2,30.31,NNW,344,0.0,0.0,84,0.00,,,0.00,Wunderground v.1.15,2013-01-01 12:25:00,
2013-01-01 06:30:00,-1.3,-5.0,30.32,NNW,344,0.0,0.0,84,0.00,,,0.00,Wunderground v.1.15,2013-01-01 12:30:00,
2013-01-01 06:35:00,-1.2,-4.9,30.32,NNW,344,0.0,0.0,84,0.00,,,0.00,Wunderground v.1.15,2013-01-01 12:35:00,
2013-01-01 06:40:00,-1.2,-5.1,30.31,NNW,344,0.0,0.0,83,0.00,,,0.00,Wunderground v.1.15,2013-01-01 12:40:00,
2013-01-01 06:45:00,-1.3,-5.2,30.31,NNW,344,0.0,0.0,83,0.00,,,0.00,Wunderground v.1.15,2013-01-01 12:45:00,
2013-01-01 06:51:00,-1.3,-5.2,30.32,NNW,344,0.0,0.0,83,0.00,,,0.00,Wunderground v.1.15,2013-01-01 12:51:00,
2013-01-01 06:55:00,-1.4,-5.3,30.32,NNW,344,0.0,0.0,83,0.00,,,0.00,Wunderground v.1.15,2013-01-01 12:55:00,
2013-01-01 07:00:00,-1.8,-5.7,30.32,NNW,344,0.0,0.0,83,0.00,,,0.00,Wunderground v.1.15,2013-01-01 13:00:00,
2013-01-01 07:05:00,-2.2,-6.1,30.32,NNW,344,0.0,0.0,83,0.00,,,0.00,Wunderground v.1.15,2013-01-01 13:05:00,
2013-01-01 07:12:00,-2.2,-5.8,30.31,NNW,344,0.0,0.0,84,0.00,,,0.00,Wunderground v.1.15,2013-01-01 13:12:00,
2013-01-01 07:17:00,-2.2,-5.8,30.31,NNW,344,0.0,0.0,84,0.00,,,0.00,Wunderground v.1.15,2013-01-01 13:17:00,
2013-01-01 07:22:00,-2.2,-5.8,30.31,NNW,344,0.0,0.0,84,0.00,,,0.00,Wunderground v.1.15,2013-01-01 13:22:00,
2013-01-01 07:27:00,-2.0,-5.6,30.31,NNW,344,0.0,0.0,84,0.00,,,0.00,Wunderground v.1.15,2013-01-01 13:27:00,
2013-01-01 07:44:00,-2.1,-5.7,30.31,NNW,344,0.0,0.0,84,0.00,,,0.00,Wunderground v.1.15,2013-01-01 13:44:00,
2013-01-01 07:49:00,-2.3,-6.2,30.30,NNW,344,0.0,0.0,83,0.00,,,0.00,Wunderground v.1.15,2013-01-01 13:49:00,
2013-01-01 07:54:00,-2.3,-5.9,30.31,NNW,344,0.0,0.0,84,0.00,,,0.00,Wunderground v.1.15,2013-01-01 13:54:00,
2013-01-01 07:59:00,-1.8,-5.5,30.31,NNW,344,0.0,0.0,84,0.00,,,0.00,Wunderground v.1.15,2013-01-01 13:59:00,
2013-01-01 08:04:00,-1.4,-5.1,30.31,NNW,344,0.0,0.0,84,0.00,,,0.00,Wunderground v.1.15,2013-01-01 14:04:00,
2013-01-01 08:09:00,-1.5,-5.4,30.32,NNW,344,0.0,0.0,83,0.00,,,0.00,Wunderground v.1.15,2013-01-01 14:09:00,
2013-01-01 08:14:00,-1.7,-5.6,30.32,NNW,344,0.0,0.0,83,0.00,,,0.00,Wunderground v.1.15,2013-01-01 14:14:00,
2013-01-01 08:19:00,-1.5,-5.2,30.32,NNW,344,0.0,0.0,84,0.00,,,0.00,Wunderground v.1.15,2013-01-01 14:19:00,
2013-01-01 08:24:00,-1.2,-4.9,30.32,NNW,344,0.0,0.0,84,0.00,,,0.00,Wunderground v.1.15,2013-01-01 14:24:00,
2013-01-01 08:29:00,-0.9,-4.6,30.32,NNW,344,0.0,0.0,84,0.00,,,0.00,Wunderground v.1.15,2013-01-01 14:29:00,
2013-01-01 08:34:00,-0.7,-4.4,30.32,NNW,344,0.0,0.0,84,0.00,,,0.00,Wunderground v.1.15,2013-01-01 14:34:00,
2013-01-01 08:39:00,-0.5,-4.2,30.32,NNW,344,0.0,0.0,84,0.00,,,0.00,Wunderground v.1.15,2013-01-01 14:39:00,
2013-01-01 08:44:00,-0.4,-4.3,30.32,NNW,344,0.0,0.0,83,0.00,,,0.00,Wunderground v.1.15,2013-01-01 14:44:00,
2013-01-01 08:49:00,-0.2,-4.1,30.32,NNW,344,0.0,0.0,83,0.00,,,0.00,Wunderground v.1.15,2013-01-01 14:49:00,
2013-01-01 08:54:00,0.0,-3.9,30.32,NNW,344,0.0,0.0,83,0.00,,,0.00,Wunderground v.1.15,2013-01-01 14:54:00,
2013-01-01 08:59:00,0.1,-3.8,30.32,NNW,344,0.0,0.0,83,0.00,,,0.00,Wunderground v.1.15,2013-01-01 14:59:00,
2013-01-01 09:04:00,0.0,-3.9,30.32,NNW,344,0.0,0.0,83,0.00,,,0.00,Wunderground v.1.15,2013-01-01 15:04:00,
2013-01-01 09:09:00,0.1,-3.8,30.33,NNW,344,0.0,0.0,83,0.00,,,0.00,Wunderground v.1.15,2013-01-01 15:09:00,
2013-01-01 09:14:00,0.1,-3.8,30.33,NNW,344,0.0,0.0,83,0.00,,,0.00,Wunderground v.1.15,2013-01-01 15:14:00,
2013-01-01 09:19:00,0.4,-3.5,30.33,NNW,344,0.0,0.0,83,0.00,,,0.00,Wunderground v.1.15,2013-01-01 15:19:00,
2013-01-01 09:24:00,0.6,-3.3,30.33,NNW,344,0.0,0.0,83,0.00,,,0.00,Wunderground v.1.15,2013-01-01 15:24:00,
2013-01-01 09:29:00,0.8,-3.2,30.34,NNW,344,0.0,0.0,83,0.00,,,0.00,Wunderground v.1.15,2013-01-01 15:29:00,
2013-01-01 09:34:00,0.9,-3.3,30.34,NNW,344,0.0,0.0,82,0.00,,,0.00,Wunderground v.1.15,2013-01-01 15:34:00,
2013-01-01 09:39:00,1.1,-3.1,30.33,NNW,344,0.0,0.0,82,0.00,,,0.00,Wunderground v.1.15,2013-01-01 15:39:00,
2013-01-01 09:44:00,1.4,-2.8,30.34,NNW,344,0.0,0.0,82,0.00,,,0.00,Wunderground v.1.15,2013-01-01 15:44:00,
2013-01-01 09:49:00,1.7,-2.5,30.34,NNW,344,0.0,0.0,82,0.00,,,0.00,Wunderground v.1.15,2013-01-01 15:49:00,
2013-01-01 09:54:00,2.0,-2.2,30.34,NNW,344,0.0,0.0,82,0.00,,,0.00,Wunderground v.1.15,2013-01-01 15:54:00,
2013-01-01 09:59:00,2.3,-2.2,30.34,NNW,344,0.0,0.0,81,0.00,,,0.00,Wunderground v.1.15,2013-01-01 15:59:00,
2013-01-01 10:04:00,2.6,-1.9,30.35,NNW,344,0.0,0.0,81,0.00,,,0.00,Wunderground v.1.15,2013-01-01 16:04:00,
2013-01-01 10:09:00,2.7,-1.8,30.35,NNW,344,0.0,0.0,81,0.00,,,0.00,Wunderground v.1.15,2013-01-01 16:09:00,
2013-01-01 10:14:00,2.9,-1.6,30.35,NNW,344,0.0,0.0,81,0.00,,,0.00,Wunderground v.1.15,2013-01-01 16:14:00,
2013-01-01 10:19:00,3.1,-1.4,30.35,NNW,344,0.0,0.0,81,0.00,,,0.00,Wunderground v.1.15,2013-01-01 16:19:00,
2013-01-01 10:24:00,3.3,-1.2,30.35,NNW,344,0.0,0.0,81,0.00,,,0.00,Wunderground v.1.15,2013-01-01 16:24:00,
2013-01-01 10:29:00,3.5,-1.3,30.35,NNW,344,0.0,0.0,80,0.00,,,0.00,Wunderground v.1.15,2013-01-01 16:29:00,
2013-01-01 10:34:00,3.7,-1.1,30.35,NNW,344,0.0,0.0,80,0.00,,,0.00,Wunderground v.1.15,2013-01-01 16:34:00,
2013-01-01 10:44:00,4.3,-0.5,30.35,NNW,344,0.0,0.0,80,0.00,,,0.00,Wunderground v.1.15,2013-01-01 16:44:00,
2013-01-01 10:49:00,4.6,-0.2,30.35,NNW,344,0.0,0.0,80,0.00,,,0.00,Wunderground v.1.15,2013-01-01 16:49:00,
2013-01-01 10:54:00,4.8,0.0,30.35,NNW,344,0.0,0.0,80,0.00,,,0.00,Wunderground v.1.15,2013-01-01 16:54:00,
2013-01-01 10:59:00,5.1,0.3,30.35,NNW,344,0.0,0.0,80,0.00,,,0.00,Wunderground v.1.15,2013-01-01 16:59:00,
2013-01-01 11:04:00,5.2,0.4,30.35,NNW,344,0.0,0.0,80,0.00,,,0.00,Wunderground v.1.15,2013-01-01 17:04:00,
2013-01-01 11:09:00,5.5,0.7,30.35,NNW,344,0.0,0.0,80,0.00,,,0.00,Wunderground v.1.15,2013-01-01 17:09:00,
2013-01-01 11:14:00,5.7,0.9,30.35,NNW,344,0.0,0.0,80,0.00,,,0.00,Wunderground v.1.15,2013-01-01 17:14:00,
2013-01-01 11:19:00,5.8,1.0,30.35,NNW,344,0.0,0.0,80,0.00,,,0.00,Wunderground v.1.15,2013-01-01 17:19:00,
2013-01-01 11:24:00,5.9,1.1,30.35,NNW,344,0.0,0.0,80,0.00,,,0.00,Wunderground v.1.15,2013-01-01 17:24:00,
2013-01-01 11:29:00,6.2,1.4,30.35,NNW,344,0.0,0.0,80,0.00,,,0.00,Wunderground v.1.15,2013-01-01 17:29:00,
2013-01-01 11:34:00,6.3,1.4,30.35,NNW,344,0.0,0.0,80,0.00,,,0.00,Wunderground v.1.15,2013-01-01 17:34:00,
2013-01-01 11:39:00,6.4,1.5,30.35,NNW,344,0.0,0.0,80,0.00,,,0.00,Wunderground v.1.15,2013-01-01 17:39:00,
2013-01-01 11:44:00,6.5,1.6,30.35,NNW,344,0.0,0.0,80,0.00,,,0.00,Wunderground v.1.15,2013-01-01 17:44:00,
2013-01-01 11:49:00,6.6,1.7,30.34,NNW,344,0.0,0.0,80,0.00,,,0.00,Wunderground v.1.15,2013-01-01 17:49:00,
2013-01-01 12:04:00,7.3,2.4,30.34,NNW,343,0.0,0.0,80,0.00,,,0.00,Wunderground v.1.15,2013-01-01 18:04:00,
2013-01-01 12:09:00,7.3,2.4,30.34,NNW,342,0.0,0.0,80,0.00,,,0.00,Wunderground v.1.15,2013-01-01 18:09:00,
2013-01-01 12:14:00,7.5,2.9,30.34,NNW,342,0.0,0.0,81,0.00,,,0.00,Wunderground v.1.15,2013-01-01 18:14:00,
2013-01-01 12:19:00,7.8,2.9,30.34,NNW,342,0.0,0.0,80,0.00,,,0.00,Wunderground v.1.15,2013-01-01 18:19:00,
2013-01-01 12:24:00,7.9,3.0,30.34,NNW,341,0.0,0.0,80,0.00,,,0.00,Wunderground v.1.15,2013-01-01 18:24:00,
2013-01-01 12:29:00,7.9,3.0,30.33,NNW,341,0.0,0.0,80,0.00,,,0.00,Wunderground v.1.15,2013-01-01 18:29:00,
2013-01-01 12:34:00,8.0,3.4,30.33,NNW,341,0.0,0.0,81,0.00,,,0.00,Wunderground v.1.15,2013-01-01 18:34:00,
2013-01-01 12:39:00,8.0,3.1,30.33,NNW,340,0.0,0.0,80,0.00,,,0.00,Wunderground v.1.15,2013-01-01 18:39:00,
2013-01-01 12:44:00,8.0,3.4,30.32,NNW,340,0.0,0.0,81,0.00,,,0.00,Wunderground v.1.15,2013-01-01 18:44:00,
2013-01-01 12:49:00,8.2,3.6,30.32,NNW,340,0.0,0.0,81,0.00,,,0.00,Wunderground v.1.15,2013-01-01 18:49:00,
2013-01-01 12:54:00,8.5,3.9,30.32,NNW,340,0.0,0.0,81,0.00,,,0.00,Wunderground v.1.15,2013-01-01 18:54:00,
2013-01-01 12:59:00,8.7,3.8,30.31,NNW,340,0.0,0.0,80,0.00,,,0.00,Wunderground v.1.15,2013-01-01 18:59:00,
2013-01-01 13:04:00,9.0,4.1,30.31,NNW,340,0.0,0.0,80,0.00,,,0.00,Wunderground v.1.15,2013-01-01 19:04:00,
2013-01-01 13:09:00,9.0,4.1,30.31,NNW,340,0.0,0.0,80,0.00,,,0.00,Wunderground v.1.15,2013-01-01 19:09:00,
2013-01-01 13:14:00,9.1,4.2,30.31,NNW,340,0.0,0.0,80,0.00,,,0.00,Wunderground v.1.15,2013-01-01 19:14:00,
2013-01-01 13:19:00,9.3,4.4,30.30,NNW,340,0.0,0.0,80,0.00,,,0.00,Wunderground v.1.15,2013-01-01 19:19:00,
2013-01-01 13:24:00,9.5,4.3,30.30,NNW,340,0.0,0.0,79,0.00,,,0.00,Wunderground v.1.15,2013-01-01 19:24:00,
2013-01-01 13:29:00,9.7,4.8,30.30,NNW,340,0.0,0.0,80,0.00,,,0.00,Wunderground v.1.15,2013-01-01 19:29:00,
2013-01-01 13:34:00,9.9,4.7,30.30,NNW,340,0.0,0.0,79,0.00,,,0.00,Wunderground v.1.15,2013-01-01 19:34:00,
2013-01-01 13:39:00,10.2,4.7,30.30,NNW,340,0.0,0.0,78,0.00,,,0.00,Wunderground v.1.15,2013-01-01 19:39:00,
2013-01-01 13:44:00,10.4,4.9,30.30,NNW,340,0.0,0.0,78,0.00,,,0.00,Wunderground v.1.15,2013-01-01 19:44:00,
2013-01-01 13:49:00,10.7,5.2,30.30,NNW,340,0.0,0.0,78,0.00,,,0.00,Wunderground v.1.15,2013-01-01 19:49:00,
2013-01-01 13:54:00,10.8,5.0,30.30,NNW,340,0.0,0.0,77,0.00,,,0.00,Wunderground v.1.15,2013-01-01 19:54:00,
2013-01-01 13:59:00,10.8,5.0,30.30,NNW,340,0.0,0.0,77,0.00,,,0.00,Wunderground v.1.15,2013-01-01 19:59:00,
2013-01-01 14:04:00,11.0,5.2,30.30,NNW,340,0.0,0.0,77,0.00,,,0.00,Wunderground v.1.15,2013-01-01 20:04:00,
2013-01-01 14:09:00,11.0,4.9,30.30,NNW,340,0.0,0.0,76,0.00,,,0.00,Wunderground v.1.15,2013-01-01 20:09:00,
2013-01-01 14:14:00,11.2,4.8,30.30,NNW,340,0.0,0.0,75,0.00,,,0.00,Wunderground v.1.15,2013-01-01 20:14:00,
2013-01-01 14:19:00,11.3,4.9,30.30,NNW,340,0.0,0.0,75,0.00,,,0.00,Wunderground v.1.15,2013-01-01 20:19:00,
2013-01-01 14:24:00,11.5,5.4,30.30,NW,315,0.0,0.0,76,0.00,,,0.00,Wunderground v.1.15,2013-01-01 20:24:00,
2013-01-01 14:34:00,12.1,5.7,30.30,NW,304,0.0,0.0,75,0.00,,,0.00,Wunderground v.1.15,2013-01-01 20:34:00,
2013-01-01 14:39:00,12.1,5.4,30.30,WNW,301,0.0,0.0,74,0.00,,,0.00,Wunderground v.1.15,2013-01-01 20:39:00,
2013-01-01 14:44:00,12.3,5.9,30.30,WNW,300,0.0,0.0,75,0.00,,,0.00,Wunderground v.1.15,2013-01-01 20:44:00,
2013-01-01 14:49:00,12.5,5.8,30.30,WNW,298,0.0,0.0,74,0.00,,,0.00,Wunderground v.1.15,2013-01-01 20:49:00,
2013-01-01 14:54:00,12.6,5.6,30.29,WNW,298,0.0,0.0,73,0.00,,,0.00,Wunderground v.1.15,2013-01-01 20:54:00,
2013-01-01 14:59:00,12.5,5.5,30.30,WNW,297,0.0,0.0,73,0.00,,,0.00,Wunderground v.1.15,2013-01-01 20:59:00,
2013-01-01 15:05:00,12.5,5.8,30.30,WNW,295,0.0,0.0,74,0.00,,,0.00,Wunderground v.1.15,2013-01-01 21:05:00,
2013-01-01 15:10:00,12.5,5.8,30.30,WNW,294,0.0,0.0,74,0.00,,,0.00,Wunderground v.1.15,2013-01-01 21:10:00,
2013-01-01 15:15:00,12.6,5.9,30.30,WNW,294,0.0,0.0,74,0.00,,,0.00,Wunderground v.1.15,2013-01-01 21:15:00,
2013-01-01 15:20:00,12.6,5.6,30.30,WNW,294,0.0,0.0,73,0.00,,,0.00,Wunderground v.1.15,2013-01-01 21:20:00,
2013-01-01 15:25:00,12.7,5.7,30.30,WNW,294,0.0,0.0,73,0.00,,,0.00,Wunderground v.1.15,2013-01-01 21:25:00,
2013-01-01 15:30:00,12.8,5.8,30.30,WNW,294,0.0,0.0,73,0.00,,,0.00,Wunderground v.1.15,2013-01-01 21:30:00,
2013-01-01 15:35:00,13.0,6.3,30.29,WNW,294,0.0,0.0,74,0.00,,,0.00,Wunderground v.1.15,2013-01-01 21:35:00,
2013-01-01 15:40:00,13.1,6.1,30.29,WNW,294,0.0,0.0,73,0.00,,,0.00,Wunderground v.1.15,2013-01-01 21:40:00,
2013-01-01 15:45:00,13.0,5.7,30.29,WNW,294,0.0,0.0,72,0.00,,,0.00,Wunderground v.1.15,2013-01-01 21:45:00,
2013-01-01 15:50:00,13.0,6.0,30.29,WNW,294,0.0,0.0,73,0.00,,,0.00,Wunderground v.1.15,2013-01-01 21:50:00,
2013-01-01 15:55:00,13.0,6.0,30.29,WNW,294,0.0,0.0,73,0.00,,,0.00,Wunderground v.1.15,2013-01-01 21:55:00,
2013-01-01 16:00:00,13.0,6.0,30.29,WNW,294,0.0,0.0,73,0.00,,,0.00,Wunderground v.1.15,2013-01-01 22:00:00,
2013-01-01 16:14:00,13.2,6.5,30.29,WNW,294,0.0,0.0,74,0.00,,,0.00,Wunderground v.1.15,2013-01-01 22:14:00,
2013-01-01 16:19:00,13.2,6.5,30.29,WNW,294,0.0,0.0,74,0.00,,,0.00,Wunderground v.1.15,2013-01-01 22:19:00,
2013-01-01 16:24:00,13.0,6.3,30.29,WNW,294,0.0,0.0,74,0.00,,,0.00,Wunderground v.1.15,2013-01-01 22:24:00,
2013-01-01 16:29:00,12.7,6.0,30.29,WNW,294,0.0,0.0,74,0.00,,,0.00,Wunderground v.1.15,2013-01-01 22:29:00,
2013-01-01 16:34:00,12.2,5.5,30.29,WNW,294,0.0,0.0,74,0.00,,,0.00,Wunderground v.1.15,2013-01-01 22:34:00,
2013-01-01 16:39:00,11.6,5.2,30.29,WNW,294,0.0,0.0,75,0.00,,,0.00,Wunderground v.1.15,2013-01-01 22:39:00,
2013-01-01 16:44:00,11.1,5.0,30.29,WNW,294,0.0,0.0,76,0.00,,,0.00,Wunderground v.1.15,2013-01-01 22:44:00,
2013-01-01 16:49:00,10.9,4.8,30.29,WNW,294,0.0,0.0,76,0.00,,,0.00,Wunderground v.1.15,2013-01-01 22:49:00,
2013-01-01 16:54:00,10.8,4.7,30.28,WNW,294,0.0,0.0,76,0.00,,,0.00,Wunderground v.1.15,2013-01-01 22:54:00,
2013-01-01 16:59:00,10.2,4.1,30.28,WNW,294,0.0,0.0,76,0.00,,,0.00,Wunderground v.1.15,2013-01-01 22:59:00,
2013-01-01 17:04:00,9.7,3.9,30.28,WNW,294,0.0,0.0,77,0.00,,,0.00,Wunderground v.1.15,2013-01-01 23:04:00,
2013-01-01 17:09:00,9.2,3.4,30.29,WNW,294,0.0,0.0,77,0.00,,,0.00,Wunderground v.1.15,2013-01-01 23:09:00,
2013-01-01 17:14:00,8.6,3.4,30.29,WNW,294,0.0,0.0,79,0.00,,,0.00,Wunderground v.1.15,2013-01-01 23:14:00,
2013-01-01 17:19:00,8.5,3.3,30.29,WNW,294,0.0,0.0,79,0.00,,,0.00,Wunderground v.1.15,2013-01-01 23:19:00,
2013-01-01 17:24:00,8.2,3.0,30.29,WNW,294,0.0,0.0,79,0.00,,,0.00,Wunderground v.1.15,2013-01-01 23:24:00,
2013-01-01 17:29:00,7.7,2.3,30.28,WNW,294,0.0,0.0,78,0.00,,,0.00,Wunderground v.1.15,2013-01-01 23:29:00,
2013-01-01 17:34:00,7.1,2.0,30.29,WNW,294,0.0,0.0,79,0.00,,,0.00,Wunderground v.1.15,2013-01-01 23:34:00,
2013-01-01 17:39:00,6.7,1.8,30.28,WNW,294,0.0,0.0,80,0.00,,,0.00,Wunderground v.1.15,2013-01-01 23:39:00,
2013-01-01 17:44:00,6.7,1.8,30.29,WNW,294,0.0,0.0,80,0.00,,,0.00,Wunderground v.1.15,2013-01-01 23:44:00,
2013-01-01 17:49:00,6.5,1.6,30.28,WNW,294,0.0,0.0,80,0.00,,,0.00,Wunderground v.1.15,2013-01-01 23:49:00,
2013-01-01 17:54:00,6.7,2.1,30.28,WNW,294,0.0,0.0,81,0.00,,,0.00,Wunderground v.1.15,2013-01-01 23:54:00,
2013-01-01 17:59:00,6.8,2.2,30.28,WNW,294,0.0,0.0,81,0.00,,,0.00,Wunderground v.1.15,2013-01-01 23:59:00,
2013-01-01 18:14:00,7.1,2.5,30.28,WNW,294,0.0,0.0,81,0.00,,,0.00,Wunderground v.1.15,2013-01-02 00:14:00,
2013-01-01 18:19:00,7.1,2.5,30.28,WNW,294,0.0,0.0,81,0.00,,,0.00,Wunderground v.1.15,2013-01-02 00:19:00,
2013-01-01 18:24:00,7.2,2.3,30.28,WNW,294,0.0,0.0,80,0.00,,,0.00,Wunderground v.1.15,2013-01-02 00:24:00,
2013-01-01 18:34:00,7.0,1.9,30.28,WNW,294,0.0,0.0,79,0.00,,,0.00,Wunderground v.1.15,2013-01-02 00:34:00,
2013-01-01 18:39:00,6.9,1.8,30.28,WNW,294,0.0,0.0,79,0.00,,,0.00,Wunderground v.1.15,2013-01-02 00:39:00,
2013-01-01 18:44:00,6.9,1.8,30.28,WNW,294,0.0,0.0,79,0.00,,,0.00,Wunderground v.1.15,2013-01-02 00:44:00,
2013-01-01 18:49:00,6.9,2.0,30.28,WNW,294,0.0,0.0,80,0.00,,,0.00,Wunderground v.1.15,2013-01-02 00:49:00,
2013-01-01 18:54:00,6.9,1.8,30.28,WNW,294,0.0,0.0,79,0.00,,,0.00,Wunderground v.1.15,2013-01-02 00:54:00,
2013-01-01 18:59:00,6.9,1.8,30.27,WNW,294,0.0,0.0,79,0.00,,,0.00,Wunderground v.1.15,2013-01-02 00:59:00,
2013-01-01 19:04:00,6.9,1.8,30.27,WNW,294,0.0,0.0,79,0.00,,,0.00,Wunderground v.1.15,2013-01-02 01:04:00,
2013-01-01 19:09:00,6.8,1.7,30.27,WNW,294,0.0,0.0,79,0.00,,,0.00,Wunderground v.1.15,2013-01-02 01:09:00,
2013-01-01 19:14:00,6.7,1.6,30.27,WNW,294,0.0,0.0,79,0.00,,,0.00,Wunderground v.1.15,2013-01-02 01:14:00,
2013-01-01 19:19:00,6.5,1.4,30.27,WNW,294,0.0,0.0,79,0.00,,,0.00,Wunderground v.1.15,2013-01-02 01:19:00,
2013-01-01 19:24:00,6.4,1.3,30.27,WNW,294,0.0,0.0,79,0.00,,,0.00,Wunderground v.1.15,2013-01-02 01:24:00,
2013-01-01 19:29:00,6.2,1.1,30.27,WNW,294,0.0,0.0,79,0.00,,,0.00,Wunderground v.1.15,2013-01-02 01:29:00,
2013-01-01 19:34:00,5.9,0.8,30.27,WNW,293,0.0,0.0,79,0.00,,,0.00,Wunderground v.1.15,2013-01-02 01:34:00,
2013-01-01 19:39:00,5.8,1.0,30.27,WNW,292,0.0,0.0,80,0.00,,,0.00,Wunderground v.1.15,2013-01-02 01:39:00,
2013-01-01 19:44:00,5.8,1.0,30.27,WNW,292,0.0,0.0,80,0.00,,,0.00,Wunderground v.1.15,2013-01-02 01:44:00,
2013-01-01 19:49:00,5.7,0.9,30.26,WNW,292,0.0,0.0,80,0.00,,,0.00,Wunderground v.1.15,2013-01-02 01:49:00,
2013-01-01 19:54:00,5.4,0.6,30.26,WNW,292,0.0,0.0,80,0.00,,,0.00,Wunderground v.1.15,2013-01-02 01:54:00,
2013-01-01 19:59:00,5.3,0.5,30.26,WNW,292,0.0,0.0,80,0.00,,,0.00,Wunderground v.1.15,2013-01-02 01:59:00,
2013-01-01 20:04:00,5.2,0.4,30.26,WNW,292,0.0,0.0,80,0.00,,,0.00,Wunderground v.1.15,2013-01-02 02:04:00,
2013-01-01 20:09:00,4.9,0.1,30.26,WNW,292,0.0,0.0,80,0.00,,,0.00,Wunderground v.1.15,2013-01-02 02:09:00,
2013-01-01 20:14:00,4.6,-0.2,30.26,WNW,292,0.0,0.0,80,0.00,,,0.00,Wunderground v.1.15,2013-01-02 02:14:00,
2013-01-01 20:19:00,4.6,0.1,30.26,WNW,292,0.0,0.0,81,0.00,,,0.00,Wunderground v.1.15,2013-01-02 02:19:00,
2013-01-01 20:24:00,4.4,-0.4,30.25,WNW,292,0.0,0.0,80,0.00,,,0.00,Wunderground v.1.15,2013-01-02 02:24:00,
2013-01-01 20:29:00,4.2,-0.6,30.25,WNW,292,0.0,0.0,80,0.00,,,0.00,Wunderground v.1.15,2013-01-02 02:29:00,
2013-01-01 20:34:00,4.3,0.0,30.25,WNW,292,0.0,0.0,82,0.00,,,0.00,Wunderground v.1.15,2013-01-02 02:34:00,
2013-01-01 20:39:00,4.6,0.3,30.25,WNW,292,0.0,0.0,82,0.00,,,0.00,Wunderground v.1.15,2013-01-02 02:39:00,
2013-01-01 20:44:00,4.9,0.9,30.26,WNW,292,0.0,0.0,83,0.00,,,0.00,Wunderground v.1.15,2013-01-02 02:44:00,
2013-01-01 20:49:00,5.2,0.9,30.26,WNW,292,0.0,0.0,82,0.00,,,0.00,Wunderground v.1.15,2013-01-02 02:49:00,
2013-01-01 20:54:00,5.3,1.0,30.26,WNW,292,0.0,0.0,82,0.00,,,0.00,Wunderground v.1.15,2013-01-02 02:54:00,
2013-01-01 20:59:00,5.3,1.0,30.26,WNW,292,0.0,0.0,82,0.00,,,0.00,Wunderground v.1.15,2013-01-02 02:59:00,
2013-01-01 21:04:00,5.0,0.4,30.26,WNW,292,0.0,0.0,81,0.00,,,0.00,Wunderground v.1.15,2013-01-02 03:04:00,
2013-01-01 21:09:00,4.7,0.2,30.26,WNW,292,0.0,0.0,81,0.00,,,0.00,Wunderground v.1.15,2013-01-02 03:09:00,
2013-01-01 21:14:00,4.8,0.5,30.25,WNW,292,0.0,0.0,82,0.00,,,0.00,Wunderground v.1.15,2013-01-02 03:14:00,
2013-01-01 21:19:00,4.9,0.9,30.25,WNW,292,0.0,0.0,83,0.00,,,0.00,Wunderground v.1.15,2013-01-02 03:19:00,
2013-01-01 21:24:00,4.9,0.9,30.25,WNW,292,0.0,0.0,83,0.00,,,0.00,Wunderground v.1.15,2013-01-02 03:24:00,
2013-01-01 21:29:00,5.0,1.0,30.25,WNW,292,0.0,0.0,83,0.00,,,0.00,Wunderground v.1.15,2013-01-02 03:29:00,
2013-01-01 21:34:00,5.0,0.7,30.26,WNW,292,0.0,0.0,82,0.00,,,0.00,Wunderground v.1.15,2013-01-02 03:34:00,
2013-01-01 21:39:00,4.8,0.5,30.26,WNW,292,0.0,0.0,82,0.00,,,0.00,Wunderground v.1.15,2013-01-02 03:39:00,
2013-01-01 21:44:00,4.8,0.5,30.26,WNW,292,0.0,0.0,82,0.00,,,0.00,Wunderground v.1.15,2013-01-02 03:44:00,
2013-01-01 21:49:00,4.9,0.9,30.25,WNW,292,0.0,0.0,83,0.00,,,0.00,Wunderground v.1.15,2013-01-02 03:49:00,
2013-01-01 21:54:00,5.0,1.0,30.25,WNW,292,0.0,0.0,83,0.00,,,0.00,Wunderground v.1.15,2013-01-02 03:54:00,
2013-01-01 21:59:00,5.2,1.2,30.25,WNW,292,0.0,0.0,83,0.00,,,0.00,Wunderground v.1.15,2013-01-02 03:59:00,
2013-01-01 22:04:00,5.2,0.9,30.25,WNW,292,0.0,0.0,82,0.00,,,0.00,Wunderground v.1.15,2013-01-02 04:04:00,
2013-01-01 22:09:00,5.0,0.7,30.25,WNW,292,0.0,0.0,82,0.00,,,0.00,Wunderground v.1.15,2013-01-02 04:09:00,
2013-01-01 22:14:00,4.7,0.4,30.26,WNW,290,0.0,0.0,82,0.00,,,0.00,Wunderground v.1.15,2013-01-02 04:14:00,
2013-01-01 22:19:00,4.8,0.8,30.25,WNW,288,0.0,0.0,83,0.00,,,0.00,Wunderground v.1.15,2013-01-02 04:19:00,
2013-01-01 22:34:00,4.8,0.5,30.25,West,276,0.0,0.0,82,0.00,,,0.00,Wunderground v.1.15,2013-01-02 04:34:00,
2013-01-01 22:39:00,4.6,0.3,30.25,West,274,0.0,0.0,82,0.00,,,0.00,Wunderground v.1.15,2013-01-02 04:39:00,
2013-01-01 22:44:00,4.5,0.2,30.25,West,273,0.0,0.0,82,0.00,,,0.00,Wunderground v.1.15,2013-01-02 04:44:00,
2013-01-01 22:49:00,4.4,0.1,30.24,West,273,0.0,0.0,82,0.00,,,0.00,Wunderground v.1.15,2013-01-02 04:49:00,
2013-01-01 22:54:00,4.4,0.4,30.25,West,273,0.0,0.0,83,0.00,,,0.00,Wunderground v.1.15,2013-01-02 04:54:00,
2013-01-01 22:59:00,4.5,0.5,30.24,West,273,0.0,0.0,83,0.00,,,0.00,Wunderground v.1.15,2013-01-02 04:59:00,
2013-01-01 23:00:00,4.5,0.5,30.24,West,273,0.0,0.0,83,0.00,,,0.00,Wunderground v.1.15,2013-01-02 05:00:00,
2013-01-01 23:03:00,4.5,0.5,30.24,West,273,0.0,0.0,83,0.00,,,0.00,Wunderground v.1.15,2013-01-02 05:03:00,
2013-01-01 23:08:00,4.7,0.7,30.24,West,273,0.0,0.0,83,0.00,,,0.00,Wunderground v.1.15,2013-01-02 05:08:00,
2013-01-01 23:13:00,5.0,1.0,30.24,West,273,0.0,0.0,83,0.00,,,0.00,Wunderground v.1.15,2013-01-02 05:13:00,
2013-01-01 23:18:00,5.2,1.2,30.24,West,273,0.0,0.0,83,0.00,,,0.00,Wunderground v.1.15,2013-01-02 05:18:00,
2013-01-01 23:23:00,5.2,0.9,30.24,West,272,0.0,0.0,82,0.00,,,0.00,Wunderground v.1.15,2013-01-02 05:23:00,
2013-01-01 23:28:00,4.9,0.3,30.24,West,272,0.0,0.0,81,0.00,,,0.00,Wunderground v.1.15,2013-01-02 05:28:00,
2013-01-01 23:33:00,4.6,0.3,30.24,West,267,0.0,0.0,82,0.00,,,0.00,Wunderground v.1.15,2013-01-02 05:33:00,
2013-01-01 23:38:00,4.6,0.3,30.24,West,262,0.0,0.0,82,0.00,,,0.00,Wunderground v.1.15,2013-01-02 05:38:00,
2013-01-01 23:43:00,4.2,-0.1,30.24,WSW,252,0.0,0.0,82,0.00,,,0.00,Wunderground v.1.15,2013-01-02 05:43:00,
2013-01-01 23:48:00,4.2,-0.1,30.23,WSW,241,0.0,0.0,82,0.00,,,0.00,Wunderground v.1.15,2013-01-02 05:48:00,
2013-01-01 23:53:00,4.4,0.4,30.23,SW,233,0.0,0.0,83,0.00,,,0.00,Wunderground v.1.15,2013-01-02 05:53:00,
2013-01-01 23:58:00,4.4,0.1,30.24,SSW,205,0.0,0.0,82,0.00,,,0.00,Wunderground v.1.15,2013-01-02 05:58:00,